Time;durP1;ratioP1;P1;durP2;ratioP2;P2;SDS_P1;SDS_P2;PMS_P1;PMS_P2;Temp;Humidity;BMP_temperature;BMP_pressure;BME280_temperature;BME280_humidity;BME280_pressure;Samples;Min_cycle;Max_cycle;Signal;HPM_P1;HPM_P2
2023/12/25 00:00:06;;;;;;;0.77;0.63;;;12.40;46.40;;;;;;20917;6712;121912;-74
2023/12/25 00:02:44;;;;;;;0.67;0.60;;;12.10;46.60;;;;;;20808;6712;287744;-74
2023/12/25 00:05:20;;;;;;;0.50;0.50;;;11.90;47.00;;;;;;21024;6712;117023;-74
2023/12/25 00:07:55;;;;;;;0.80;0.70;;;11.90;47.00;;;;;;20785;6719;276135;-74
2023/12/25 00:10:32;;;;;;;0.73;0.60;;;12.10;45.90;;;;;;20596;6736;278963;-74
2023/12/25 00:13:07;;;;;;;0.60;0.60;;;12.10;45.90;;;;;;20705;6747;277084;-75
2023/12/25 00:15:44;;;;;;;0.60;0.60;;;12.40;44.90;;;;;;20703;6747;279789;-74
2023/12/25 00:18:19;;;;;;;0.70;0.57;;;12.40;44.90;;;;;;20890;6747;117873;-74
2023/12/25 00:20:56;;;;;;;0.60;0.60;;;12.10;45.20;;;;;;20564;6747;307114;-74
2023/12/25 00:23:31;;;;;;;0.50;0.50;;;12.10;45.20;;;;;;20691;6747;336027;-74
2023/12/25 00:26:07;;;;;;;0.75;0.70;;;12.20;44.80;;;;;;20662;6754;318828;-74
2023/12/25 00:28:42;;;;;;;0.83;0.50;;;12.30;44.50;;;;;;20955;6734;117002;-74
2023/12/25 00:31:18;;;;;;;0.77;0.77;;;12.10;45.40;;;;;;20795;6734;117207;-74
2023/12/25 00:33:54;;;;;;;0.60;0.60;;;11.40;46.80;;;;;;20954;6739;117438;-74
2023/12/25 00:36:30;;;;;;;0.50;0.50;;;11.40;46.80;;;;;;20942;6732;117737;-75
2023/12/25 00:39:08;;;;;;;0.97;0.50;;;11.00;48.10;;;;;;20995;6718;116578;-74
2023/12/25 00:41:43;;;;;;;0.57;0.57;;;11.00;48.10;;;;;;20956;6728;116948;-74
2023/12/25 00:44:20;;;;;;;0.60;0.60;;;10.80;48.50;;;;;;20804;6710;305848;-74
2023/12/25 00:46:57;;;;;;;0.60;0.60;;;11.00;47.40;;;;;;20801;6715;327550;-75
2023/12/25 00:49:33;;;;;;;0.97;0.47;;;11.70;46.30;;;;;;20731;6729;277318;-74
2023/12/25 00:52:09;;;;;;;0.90;0.53;;;11.70;46.30;;;;;;20763;6719;297158;-75
2023/12/25 00:54:45;;;;;;;1.23;0.50;;;11.80;45.60;;;;;;21005;6719;117040;-74
2023/12/25 00:57:20;;;;;;;0.60;0.60;;;11.70;46.10;;;;;;20791;6719;335051;-74
2023/12/25 00:59:56;;;;;;;0.60;0.43;;;11.70;46.00;;;;;;20918;6719;116952;-75
2023/12/25 01:02:31;;;;;;;1.20;0.80;;;11.60;46.50;;;;;;20787;6710;314261;-75
2023/12/25 01:05:09;;;;;;;0.70;0.60;;;11.60;46.00;;;;;;20784;6711;308872;-75
2023/12/25 01:07:43;;;;;;;0.83;0.50;;;11.70;46.20;;;;;;21015;6711;116934;-74
2023/12/25 01:10:19;;;;;;;0.50;0.50;;;11.70;46.20;;;;;;20905;6711;117597;-75
2023/12/25 01:12:55;;;;;;;0.60;0.60;;;11.40;46.90;;;;;;21024;6711;116904;-74
2023/12/25 01:15:30;;;;;;;0.80;0.60;;;11.20;47.40;;;;;;20801;6711;333912;-74
2023/12/25 01:18:06;;;;;;;0.47;0.47;;;11.30;46.20;;;;;;21004;6711;117331;-75
2023/12/25 01:20:43;;;;;;;0.62;0.60;;;11.30;46.70;;;;;;20688;6711;307512;-76
2023/12/25 01:23:18;;;;;;;0.60;0.60;;;11.70;44.60;;;;;;20807;6711;289108;-75
2023/12/25 01:25:53;;;;;;;1.43;0.60;;;11.70;44.60;;;;;;21019;6711;118012;-74
2023/12/25 01:28:29;;;;;;;3.23;0.50;;;11.60;45.00;;;;;;21007;6711;122137;-73
2023/12/25 01:31:06;;;;;;;0.60;0.60;;;11.40;46.00;;;;;;20652;6711;306449;-73
2023/12/25 01:33:40;;;;;;;0.63;0.63;;;11.50;44.80;;;;;;21027;6711;116974;-74
2023/12/25 01:36:16;;;;;;;0.57;0.40;;;11.50;45.50;;;;;;21006;6711;124255;-75
2023/12/25 01:38:51;;;;;;;0.50;0.50;;;11.30;45.90;;;;;;20812;6711;304101;-73
2023/12/25 01:41:27;;;;;;;0.47;0.47;;;11.40;45.10;;;;;;20793;6782;118389;-74
2023/12/25 01:44:03;;;;;;;0.50;0.50;;;11.20;46.10;;;;;;21003;6711;116961;-75
2023/12/25 01:46:39;;;;;;;0.63;0.40;;;11.10;45.90;;;;;;21027;6711;117036;-74
2023/12/25 01:49:14;;;;;;;0.60;0.60;;;11.00;46.80;;;;;;20793;6711;335072;-74
2023/12/25 01:51:50;;;;;;;1.45;0.70;;;11.10;45.00;;;;;;20803;6710;304461;-74
2023/12/25 01:54:27;;;;;;;0.60;0.60;;;11.50;44.20;;;;;;21001;6710;116817;-75
2023/12/25 01:57:03;;;;;;;0.53;0.50;;;11.40;44.50;;;;;;21024;6710;116781;-74
2023/12/25 01:59:39;;;;;;;0.50;0.50;;;11.30;44.40;;;;;;20764;6710;309592;-74
2023/12/25 02:02:15;;;;;;;0.50;0.40;;;11.30;44.30;;;;;;20798;6711;275968;-73
2023/12/25 02:04:51;;;;;;;0.50;0.50;;;11.80;43.60;;;;;;20796;6711;335819;-74
2023/12/25 02:07:26;;;;;;;0.50;0.50;;;11.80;43.30;;;;;;20764;6711;305936;-74
2023/12/25 02:10:02;;;;;;;1.60;0.70;;;11.90;42.80;;;;;;20668;6711;297887;-75
2023/12/25 02:12:38;;;;;;;0.80;0.80;;;12.10;42.70;;;;;;20980;6711;118301;-75
2023/12/25 02:15:13;;;;;;;0.40;0.30;;;11.80;43.30;;;;;;20986;6711;116731;-74
2023/12/25 02:17:49;;;;;;;0.60;0.60;;;11.40;44.10;;;;;;20985;6711;116799;-74
2023/12/25 02:20:25;;;;;;;0.50;0.50;;;11.10;44.80;;;;;;20639;6711;336478;-74
2023/12/25 02:23:00;;;;;;;0.67;0.50;;;11.10;44.10;;;;;;21021;6711;117271;-75
2023/12/25 02:25:36;;;;;;;0.60;0.60;;;11.10;44.60;;;;;;21027;6711;117918;-75
2023/12/25 02:28:11;;;;;;;0.67;0.67;;;10.90;45.40;;;;;;21012;6711;118265;-75
2023/12/25 02:30:47;;;;;;;0.60;0.50;;;10.60;45.90;;;;;;20890;6711;117365;-75
2023/12/25 02:33:22;;;;;;;1.57;0.50;;;10.50;46.30;;;;;;21027;6711;117429;-74
2023/12/25 02:35:59;;;;;;;0.60;0.60;;;10.20;47.00;;;;;;21022;6711;117041;-74
2023/12/25 02:38:34;;;;;;;0.60;0.60;;;10.20;47.00;;;;;;20787;6711;305692;-75
2023/12/25 02:41:11;;;;;;;0.97;0.60;;;10.50;45.70;;;;;;20858;6711;117246;-74
2023/12/25 02:43:46;;;;;;;0.73;0.40;;;10.50;45.70;;;;;;21023;6711;116928;-74
2023/12/25 02:46:22;;;;;;;0.60;0.60;;;10.40;46.10;;;;;;20790;6711;336252;-74
2023/12/25 02:48:57;;;;;;;1.57;0.50;;;10.60;44.80;;;;;;21027;6711;116758;-74
2023/12/25 02:51:33;;;;;;;0.40;0.40;;;10.60;45.30;;;;;;21026;6711;116923;-74
2023/12/25 02:54:09;;;;;;;0.87;0.50;;;10.40;46.30;;;;;;21007;6711;117957;-74
2023/12/25 02:56:45;;;;;;;1.87;0.70;;;10.30;46.20;;;;;;21027;6711;117124;-74
2023/12/25 02:59:20;;;;;;;1.40;0.70;;;10.30;46.60;;;;;;20788;6711;307879;-74
2023/12/25 03:01:56;;;;;;;0.52;0.50;;;10.50;45.00;;;;;;20812;6711;276710;-74
2023/12/25 03:04:32;;;;;;;1.20;0.70;;;11.10;43.20;;;;;;20797;6710;277009;-75
2023/12/25 03:07:10;;;;;;;0.57;0.57;;;11.10;43.20;;;;;;20814;6710;333859;-75
2023/12/25 03:09:45;;;;;;;0.30;0.30;;;11.30;42.30;;;;;;20968;6711;117242;-74
2023/12/25 03:12:20;;;;;;;1.50;0.60;;;11.20;43.20;;;;;;20789;6711;334277;-75
2023/12/25 03:14:56;;;;;;;0.47;0.47;;;11.20;42.70;;;;;;21020;6711;117279;-75
2023/12/25 03:17:31;;;;;;;0.60;0.60;;;11.10;43.50;;;;;;21030;6711;117240;-75
2023/12/25 03:20:09;;;;;;;0.73;0.60;;;10.50;44.80;;;;;;20922;6711;117667;-75
2023/12/25 03:22:44;;;;;;;0.68;0.60;;;10.50;44.80;;;;;;20807;6711;276288;-74
2023/12/25 03:25:20;;;;;;;0.60;0.60;;;10.70;43.40;;;;;;21029;6711;117915;-74
2023/12/25 03:27:56;;;;;;;0.57;0.50;;;10.60;44.00;;;;;;21025;6711;116647;-74
2023/12/25 03:30:32;;;;;;;0.65;0.60;;;10.50;44.50;;;;;;20678;6711;306079;-74
2023/12/25 03:33:08;;;;;;;0.65;0.65;;;10.60;43.00;;;;;;20820;6592;305170;-74
2023/12/25 03:35:44;;;;;;;1.37;0.60;;;11.20;41.60;;;;;;20813;6711;304051;-74
2023/12/25 03:38:20;;;;;;;0.50;0.50;;;11.20;41.60;;;;;;20801;6711;305202;-74
2023/12/25 03:40:55;;;;;;;0.40;0.40;;;11.40;40.90;;;;;;20675;6711;336412;-74
2023/12/25 03:43:31;;;;;;;0.50;0.50;;;11.60;40.70;;;;;;21019;6711;117687;-74
2023/12/25 03:46:07;;;;;;;1.90;0.60;;;11.40;41.70;;;;;;21010;6711;116935;-74
2023/12/25 03:48:43;;;;;;;3.80;0.63;;;10.70;43.40;;;;;;21028;6711;117541;-74
2023/12/25 03:51:18;;;;;;;0.50;0.50;;;10.70;43.40;;;;;;20639;6711;277316;-74
2023/12/25 03:53:54;;;;;;;0.60;0.60;;;10.80;42.10;;;;;;20814;6711;275687;-74
2023/12/25 03:56:30;;;;;;;3.33;0.70;;;11.00;41.30;;;;;;20799;6711;319001;-74
2023/12/25 03:59:05;;;;;;;0.70;0.60;;;11.30;41.00;;;;;;21018;6711;116729;-74
2023/12/25 04:01:41;;;;;;;0.50;0.50;;;11.10;41.70;;;;;;21021;6711;116858;-74
2023/12/25 04:04:16;;;;;;;0.52;0.52;;;10.80;42.60;;;;;;20795;6711;335620;-74
2023/12/25 04:06:52;;;;;;;0.83;0.60;;;10.80;41.70;;;;;;21029;6711;117362;-74
2023/12/25 04:09:28;;;;;;;0.40;0.40;;;10.50;43.20;;;;;;20985;6711;116766;-74
2023/12/25 04:12:04;;;;;;;0.83;0.43;;;10.40;43.10;;;;;;21009;6711;122590;-76
2023/12/25 04:14:40;;;;;;;0.60;0.60;;;10.20;43.60;;;;;;21028;6710;116963;-74
2023/12/25 04:17:19;;;;;;;0.65;0.65;;;10.10;44.20;;;;;;20815;6710;335507;-74
2023/12/25 04:19:51;;;;;;;1.00;0.70;;;10.30;43.00;;;;;;20961;6711;117369;-74
2023/12/25 04:22:26;;;;;;;1.03;0.50;;;10.30;43.30;;;;;;21003;6710;116781;-74
2023/12/25 04:25:03;;;;;;;0.60;0.60;;;9.90;45.10;;;;;;21028;6711;117745;-74
2023/12/25 04:27:38;;;;;;;1.10;0.53;;;9.90;45.10;;;;;;21030;6711;117601;-74
2023/12/25 04:30:14;;;;;;;0.83;0.50;;;9.80;45.60;;;;;;20909;6711;117081;-74
2023/12/25 04:32:50;;;;;;;0.68;0.60;;;9.90;44.20;;;;;;20817;6711;318571;-74
2023/12/25 04:35:26;;;;;;;0.50;0.50;;;9.90;43.60;;;;;;21024;6711;116662;-74
2023/12/25 04:38:02;;;;;;;0.50;0.50;;;10.00;42.90;;;;;;21028;6711;116716;-74
2023/12/25 04:40:37;;;;;;;0.67;0.60;;;9.90;44.40;;;;;;20680;6711;306409;-74
2023/12/25 04:43:13;;;;;;;0.40;0.40;;;10.10;42.20;;;;;;21030;6711;119699;-74
2023/12/25 04:45:48;;;;;;;0.50;0.50;;;10.10;42.30;;;;;;20817;6711;304379;-74
2023/12/25 04:48:25;;;;;;;1.25;0.70;;;10.60;40.60;;;;;;20792;6711;304612;-74
2023/12/25 04:51:00;;;;;;;0.50;0.50;;;10.60;40.60;;;;;;20654;6711;306742;-74
2023/12/25 04:53:36;;;;;;;1.00;0.60;;;10.90;40.10;;;;;;20811;6711;306847;-74
2023/12/25 04:56:11;;;;;;;0.50;0.50;;;11.10;39.40;;;;;;21007;6711;118044;-74
2023/12/25 04:58:47;;;;;;;2.40;0.67;;;10.90;40.00;;;;;;21025;6711;117088;-74
2023/12/25 05:01:23;;;;;;;0.80;0.60;;;10.60;40.80;;;;;;20638;6711;306795;-74
2023/12/25 05:04:01;;;;;;;0.53;0.53;;;10.60;40.20;;;;;;20987;6711;116854;-75
2023/12/25 05:06:35;;;;;;;0.60;0.50;;;10.60;39.90;;;;;;20770;6711;304809;-74
2023/12/25 05:09:10;;;;;;;0.43;0.43;;;10.60;39.90;;;;;;21005;6711;116953;-74
2023/12/25 05:11:46;;;;;;;1.70;0.53;;;10.50;40.60;;;;;;20997;6711;116903;-74
2023/12/25 05:14:22;;;;;;;0.40;0.40;;;10.30;41.20;;;;;;20773;6708;304458;-74
2023/12/25 05:16:57;;;;;;;0.50;0.50;;;10.40;40.10;;;;;;20812;6708;276478;-74
2023/12/25 05:19:32;;;;;;;0.40;0.40;;;10.70;39.10;;;;;;20977;6708;117881;-74
2023/12/25 05:22:09;;;;;;;0.70;0.67;;;10.40;40.60;;;;;;20994;6711;118035;-74
2023/12/25 05:24:44;;;;;;;0.70;0.70;;;10.40;40.60;;;;;;21025;6711;117262;-74
2023/12/25 05:27:20;;;;;;;0.93;0.40;;;10.20;41.20;;;;;;21034;6710;117367;-74
2023/12/25 05:29:56;;;;;;;1.33;0.60;;;10.00;41.70;;;;;;20962;6710;117893;-74
2023/12/25 05:32:31;;;;;;;0.50;0.50;;;9.80;43.20;;;;;;20804;6710;305203;-74
2023/12/25 05:35:07;;;;;;;0.40;0.40;;;10.00;40.60;;;;;;21025;6711;117072;-74
2023/12/25 05:37:42;;;;;;;0.50;0.50;;;10.00;40.90;;;;;;20815;6711;333382;-74
2023/12/25 05:40:18;;;;;;;0.60;0.60;;;10.20;39.70;;;;;;20698;6711;335494;-74
2023/12/25 05:42:54;;;;;;;0.87;0.80;;;10.50;39.00;;;;;;20822;6711;304990;-74
2023/12/25 05:45:29;;;;;;;0.60;0.60;;;10.80;39.00;;;;;;20819;6711;276536;-74
2023/12/25 05:48:05;;;;;;;0.60;0.60;;;11.00;38.10;;;;;;20803;6711;302143;-74
2023/12/25 05:50:42;;;;;;;0.73;0.60;;;11.30;37.50;;;;;;20685;6711;306059;-74
2023/12/25 05:53:17;;;;;;;0.50;0.50;;;11.30;37.50;;;;;;21032;6711;117908;-74
2023/12/25 05:55:53;;;;;;;0.47;0.47;;;11.10;38.30;;;;;;20818;6711;304747;-74
2023/12/25 05:58:28;;;;;;;0.50;0.50;;;11.00;37.70;;;;;;21017;6711;118465;-75
2023/12/25 06:01:08;;;;;;;0.40;0.40;;;10.90;38.20;;;;;;20675;6711;331199;-76
2023/12/25 06:03:40;;;;;;;0.50;0.50;;;10.90;38.20;;;;;;21038;6711;67647;-76
2023/12/25 06:06:17;;;;;;;1.70;0.60;;;10.80;38.50;;;;;;20826;6711;333859;-76
2023/12/25 06:08:55;;;;;;;0.70;0.60;;;10.80;38.50;;;;;;21046;6711;67497;-76
2023/12/25 06:11:28;;;;;;;1.33;0.80;;;10.70;39.50;;;;;;20608;6782;307508;-78
2023/12/25 06:14:03;;;;;;;0.98;0.70;;;10.70;38.60;;;;;;20829;6711;305327;-75
2023/12/25 06:16:39;;;;;;;0.40;0.40;;;11.00;38.10;;;;;;20960;6711;71867;-75
2023/12/25 06:19:15;;;;;;;0.60;0.60;;;10.80;39.00;;;;;;20803;6711;304866;-75
2023/12/25 06:21:51;;;;;;;0.52;0.50;;;11.10;38.00;;;;;;20832;6711;276066;-76
2023/12/25 06:24:27;;;;;;;1.07;0.60;;;11.00;37.30;;;;;;21043;6711;67687;-75
2023/12/25 06:27:05;;;;;;;0.50;0.50;;;10.90;38.60;;;;;;21044;6711;71931;-75
2023/12/25 06:29:38;;;;;;;0.40;0.40;;;10.60;39.60;;;;;;20995;6711;68221;-76
2023/12/25 06:32:14;;;;;;;0.50;0.50;;;10.40;40.70;;;;;;21044;6711;67204;-76
2023/12/25 06:34:50;;;;;;;0.60;0.57;;;10.00;42.30;;;;;;21045;6711;67924;-76
2023/12/25 06:37:25;;;;;;;0.50;0.50;;;10.00;42.30;;;;;;21052;6710;67818;-75
2023/12/25 06:40:01;;;;;;;0.80;0.60;;;9.80;43.90;;;;;;20723;6710;337784;-77
2023/12/25 06:42:36;;;;;;;0.60;0.50;;;10.10;40.20;;;;;;21040;6711;70212;-79
2023/12/25 06:45:12;;;;;;;0.68;0.60;;;10.10;41.20;;;;;;20824;6711;320027;-80
2023/12/25 06:47:48;;;;;;;0.37;0.37;;;10.30;39.20;;;;;;21047;6711;68882;-78
2023/12/25 06:50:23;;;;;;;0.52;0.52;;;10.30;40.20;;;;;;20719;6711;335603;-75
2023/12/25 06:52:59;;;;;;;0.70;0.70;;;10.50;38.60;;;;;;20837;6711;305475;-77
2023/12/25 06:55:34;;;;;;;0.60;0.60;;;10.80;38.00;;;;;;20833;6711;277078;-77
2023/12/25 06:58:10;;;;;;;0.50;0.50;;;11.00;37.10;;;;;;21044;6711;67778;-77
2023/12/25 07:00:49;;;;;;;0.50;0.50;;;10.90;38.20;;;;;;20691;6711;307209;-77
2023/12/25 07:03:21;;;;;;;0.93;0.70;;;10.90;37.30;;;;;;20823;6711;304958;-76
2023/12/25 07:05:57;;;;;;;0.70;0.70;;;11.10;36.70;;;;;;21047;6711;69228;-77
2023/12/25 07:08:33;;;;;;;0.50;0.50;;;10.90;36.80;;;;;;20825;6711;334211;-76
2023/12/25 07:11:09;;;;;;;0.60;0.60;;;10.90;36.80;;;;;;20643;6711;306941;-77
2023/12/25 07:13:45;;;;;;;1.03;0.50;;;10.90;38.20;;;;;;21026;6711;116765;-81
2023/12/25 07:16:25;;;;;;;0.60;0.60;;;10.90;37.90;;;;;;20734;6711;304996;-81
2023/12/25 07:19:00;;;;;;;0.70;0.70;;;10.90;36.80;;;;;;20774;6711;276338;-81
2023/12/25 07:21:35;;;;;;;1.00;0.63;;;11.10;36.50;;;;;;20775;6711;304105;-80
2023/12/25 07:24:11;;;;;;;0.60;0.60;;;11.20;36.00;;;;;;20766;6711;275335;-83
2023/12/25 07:26:46;;;;;;;0.73;0.73;;;11.40;35.90;;;;;;20994;6711;116877;-79
2023/12/25 07:29:25;;;;;;;0.50;0.50;;;11.10;37.00;;;;;;20954;6711;117037;-79
2023/12/25 07:31:57;;;;;;;1.10;0.60;;;10.80;38.30;;;;;;20791;6711;318540;-79
2023/12/25 07:34:37;;;;;;;0.60;0.60;;;10.80;37.00;;;;;;21021;6711;116994;-82
2023/12/25 07:37:10;;;;;;;0.60;0.60;;;10.70;38.00;;;;;;20773;6711;305406;-80
2023/12/25 07:39:46;;;;;;;0.70;0.70;;;11.00;36.30;;;;;;20741;6711;287914;-80
2023/12/25 07:42:22;;;;;;;1.20;0.80;;;11.00;36.30;;;;;;20777;6711;282678;-81
2023/12/25 07:44:58;;;;;;;0.70;0.60;;;11.20;36.30;;;;;;20798;6711;305619;-80
2023/12/25 07:47:33;;;;;;;0.50;0.50;;;11.40;36.10;;;;;;21021;6711;116814;-80
2023/12/25 07:50:10;;;;;;;0.60;0.60;;;11.10;36.30;;;;;;20700;6710;306960;-80
2023/12/25 07:52:45;;;;;;;0.50;0.50;;;11.10;36.90;;;;;;21033;6710;119250;-80
2023/12/25 07:55:22;;;;;;;0.60;0.60;;;10.90;37.20;;;;;;21035;6710;120213;-81
2023/12/25 07:57:57;;;;;;;1.10;0.60;;;10.70;38.20;;;;;;21034;6711;118778;-81
2023/12/25 08:00:33;;;;;;;0.70;0.70;;;10.40;39.10;;;;;;20676;6710;335767;-81
2023/12/25 08:03:12;;;;;;;0.50;0.50;;;10.60;38.30;;;;;;21035;6711;120563;-80
2023/12/25 08:05:48;;;;;;;0.67;0.63;;;10.50;38.20;;;;;;21027;6711;116856;-80
2023/12/25 08:08:24;;;;;;;0.60;0.60;;;10.40;38.80;;;;;;20796;6711;278941;-81
2023/12/25 08:10:59;;;;;;;1.03;0.50;;;10.60;37.30;;;;;;20881;6711;117205;-80
2023/12/25 08:13:35;;;;;;;0.90;0.80;;;10.60;37.90;;;;;;20817;6711;335609;-81
2023/12/25 08:16:10;;;;;;;0.60;0.60;;;10.80;37.20;;;;;;21014;6711;127146;-80
2023/12/25 08:18:46;;;;;;;0.90;0.70;;;10.80;37.70;;;;;;21015;6711;117010;-80
2023/12/25 08:21:23;;;;;;;0.75;0.75;;;10.60;38.60;;;;;;20635;6711;334422;-80
2023/12/25 08:23:58;;;;;;;0.50;0.50;;;10.70;37.50;;;;;;21031;6711;116856;-80
2023/12/25 08:26:33;;;;;;;0.60;0.50;;;10.70;37.90;;;;;;21012;6711;118588;-80
2023/12/25 08:29:08;;;;;;;0.70;0.70;;;10.60;38.80;;;;;;20807;6711;304240;-80
2023/12/25 08:31:44;;;;;;;0.60;0.60;;;10.70;37.80;;;;;;20794;6711;275847;-80
2023/12/25 08:34:20;;;;;;;0.70;0.70;;;11.00;37.30;;;;;;20797;6711;304805;-81
2023/12/25 08:36:56;;;;;;;1.10;0.70;;;11.30;36.90;;;;;;20819;6711;277059;-80
2023/12/25 08:39:32;;;;;;;0.60;0.60;;;11.60;36.70;;;;;;20985;6711;118058;-80
2023/12/25 08:42:08;;;;;;;0.70;0.70;;;11.40;37.50;;;;;;20795;6711;275184;-80
2023/12/25 08:44:43;;;;;;;0.80;0.80;;;11.50;37.40;;;;;;20820;6711;312756;-80
2023/12/25 08:47:19;;;;;;;0.75;0.75;;;11.60;36.70;;;;;;20816;6711;304465;-80
2023/12/25 08:49:54;;;;;;;0.63;0.63;;;11.80;36.70;;;;;;20962;6711;117718;-80
2023/12/25 08:52:30;;;;;;;0.90;0.90;;;11.60;37.40;;;;;;20795;6711;334887;-81
2023/12/25 08:55:06;;;;;;;0.70;0.70;;;11.60;37.40;;;;;;21034;6711;117242;-81
2023/12/25 08:57:41;;;;;;;0.80;0.80;;;11.50;38.20;;;;;;20815;6711;334967;-81
2023/12/25 09:00:17;;;;;;;0.80;0.80;;;11.50;38.00;;;;;;20703;6710;335532;-80
2023/12/25 09:02:52;;;;;;;0.80;0.80;;;11.70;38.00;;;;;;21033;6710;117855;-80
2023/12/25 09:05:29;;;;;;;0.80;0.70;;;11.50;38.50;;;;;;20812;6711;333392;-80
2023/12/25 09:08:04;;;;;;;0.83;0.70;;;11.50;38.50;;;;;;21014;6710;127629;-80
2023/12/25 09:10:40;;;;;;;0.70;0.70;;;11.50;39.20;;;;;;20899;6711;117314;-80
2023/12/25 09:13:16;;;;;;;0.70;0.70;;;11.20;39.80;;;;;;21028;6711;116796;-79
2023/12/25 09:15:55;;;;;;;0.60;0.60;;;10.90;41.80;;;;;;21035;6711;120914;-78
2023/12/25 09:18:30;;;;;;;0.60;0.60;;;10.90;41.40;;;;;;20951;6711;116084;-78
2023/12/25 09:21:08;;;;;;;1.00;1.00;;;10.80;41.90;;;;;;20626;6711;337409;-78
2023/12/25 09:23:40;;;;;;;1.02;0.90;;;11.10;42.10;;;;;;20783;6711;276075;-76
2023/12/25 09:26:16;;;;;;;1.07;1.00;;;11.90;41.10;;;;;;20797;6711;305274;-79
2023/12/25 09:28:52;;;;;;;0.70;0.70;;;11.90;41.10;;;;;;20811;6711;334252;-82
2023/12/25 09:31:27;;;;;;;0.70;0.70;;;12.20;40.40;;;;;;20589;6782;277903;-81
2023/12/25 09:34:03;;;;;;;0.73;0.73;;;12.40;40.40;;;;;;20810;6711;305990;-81
2023/12/25 09:36:39;;;;;;;0.70;0.70;;;12.60;39.60;;;;;;21027;6711;116913;-78
2023/12/25 09:39:15;;;;;;;1.20;0.90;;;12.10;40.60;;;;;;21003;6711;120056;-73
2023/12/25 09:41:50;;;;;;;0.98;0.90;;;12.10;40.60;;;;;;20855;6711;292292;-76
2023/12/25 09:44:28;;;;;;;0.70;0.70;;;12.30;41.10;;;;;;20792;6711;276591;-78
2023/12/25 09:47:03;;;;;;;0.75;0.70;;;12.30;41.00;;;;;;20797;6711;314526;-78
2023/12/25 09:49:38;;;;;;;1.10;0.70;;;12.50;40.60;;;;;;20755;6711;306241;-73
2023/12/25 09:52:14;;;;;;;0.97;0.93;;;12.90;39.50;;;;;;20800;6711;287029;-75
2023/12/25 09:54:50;;;;;;;0.70;0.70;;;12.80;39.40;;;;;;21034;6711;116728;-75
2023/12/25 09:57:25;;;;;;;1.50;1.20;;;12.70;39.70;;;;;;21034;6711;119950;-77
2023/12/25 10:00:04;;;;;;;0.93;0.90;;;12.40;40.10;;;;;;20740;6711;335653;-73
2023/12/25 10:02:41;;;;;;;1.13;1.03;;;12.40;39.90;;;;;;20807;6711;278449;-75
2023/12/25 10:05:18;;;;;;;1.70;0.90;;;12.60;39.80;;;;;;20817;6711;278467;-73
2023/12/25 10:07:52;;;;;;;1.10;0.80;;;12.80;39.60;;;;;;20997;6711;118995;-74
2023/12/25 10:10:29;;;;;;;0.77;0.77;;;12.60;39.90;;;;;;20676;6711;307603;-75
2023/12/25 10:13:04;;;;;;;1.17;0.73;;;12.60;39.90;;;;;;21027;6710;116820;-74
2023/12/25 10:15:40;;;;;;;0.87;0.87;;;12.50;40.10;;;;;;20916;6710;117307;-74
2023/12/25 10:18:16;;;;;;;1.30;0.70;;;12.00;40.80;;;;;;20960;6710;126686;-76
2023/12/25 10:20:55;;;;;;;0.90;0.90;;;12.00;41.00;;;;;;20903;6711;117224;-74
2023/12/25 10:23:31;;;;;;;1.70;0.90;;;11.80;41.30;;;;;;21016;6711;115921;-78
2023/12/25 10:26:07;;;;;;;2.07;0.80;;;11.70;41.60;;;;;;20996;6711;118936;-75
2023/12/25 10:28:43;;;;;;;0.80;0.80;;;11.60;41.80;;;;;;21003;6711;120688;-77
2023/12/25 10:31:18;;;;;;;2.00;0.70;;;11.50;42.20;;;;;;20818;6711;117413;-77
2023/12/25 10:33:58;;;;;;;0.80;0.80;;;11.40;42.70;;;;;;20955;6711;117193;-76
2023/12/25 10:36:34;;;;;;;0.90;0.90;;;11.40;43.00;;;;;;21003;6710;117187;-76
2023/12/25 10:39:11;;;;;;;1.00;0.80;;;11.40;43.00;;;;;;20789;6711;298733;-79
2023/12/25 10:41:49;;;;;;;0.60;0.60;;;11.70;42.40;;;;;;21014;6711;117316;-78
2023/12/25 10:44:23;;;;;;;0.80;0.80;;;11.90;42.40;;;;;;20790;6711;424769;-77
2023/12/25 10:46:58;;;;;;;0.70;0.70;;;12.10;42.20;;;;;;20795;6711;300770;-75
2023/12/25 10:49:33;;;;;;;1.07;0.80;;;12.60;41.80;;;;;;20724;6711;307103;-74
2023/12/25 10:52:09;;;;;;;0.70;0.70;;;12.90;41.60;;;;;;21001;6711;119344;-75
2023/12/25 10:54:45;;;;;;;1.60;0.60;;;13.00;41.70;;;;;;21005;6711;116967;-77
2023/12/25 10:57:21;;;;;;;0.60;0.60;;;12.90;41.90;;;;;;21029;6711;116856;-77
2023/12/25 10:59:56;;;;;;;1.10;0.80;;;12.70;42.10;;;;;;20742;6711;307956;-78
2023/12/25 11:02:31;;;;;;;0.93;0.77;;;13.00;42.20;;;;;;20794;6711;305581;-77
2023/12/25 11:05:07;;;;;;;0.70;0.70;;;13.30;41.40;;;;;;20831;6711;299604;-75
2023/12/25 11:07:42;;;;;;;0.77;0.77;;;13.60;41.30;;;;;;20828;6711;305695;-77
2023/12/25 11:10:18;;;;;;;0.50;0.50;;;13.90;40.90;;;;;;20908;6711;118303;-74
2023/12/25 11:12:54;;;;;;;1.30;0.75;;;13.70;41.00;;;;;;20810;6711;333869;-75
2023/12/25 11:15:30;;;;;;;0.60;0.60;;;13.60;41.20;;;;;;21029;6711;116871;-77
2023/12/25 11:18:07;;;;;;;0.97;0.70;;;13.50;41.50;;;;;;21013;6711;117759;-76
2023/12/25 11:20:41;;;;;;;0.70;0.70;;;13.30;42.00;;;;;;20684;6711;309646;-76
2023/12/25 11:23:16;;;;;;;0.60;0.60;;;13.40;42.50;;;;;;21032;6711;116725;-76
2023/12/25 11:25:52;;;;;;;0.73;0.73;;;13.50;42.60;;;;;;20815;6710;306420;-78
2023/12/25 11:28:27;;;;;;;1.20;0.60;;;13.60;42.70;;;;;;21010;6710;116856;-74
2023/12/25 11:31:04;;;;;;;0.70;0.60;;;13.70;43.40;;;;;;20652;6710;307851;-77
2023/12/25 11:33:46;;;;;;;0.57;0.57;;;13.70;42.80;;;;;;20812;6711;305538;-76
2023/12/25 11:36:23;;;;;;;3.47;3.27;;;14.30;42.60;;;;;;20783;6711;274806;-75
2023/12/25 11:38:58;;;;;;;0.70;0.70;;;14.20;42.50;;;;;;21000;6711;118279;-77
2023/12/25 11:41:37;;;;;;;0.50;0.50;;;13.80;43.00;;;;;;21028;6711;118440;-76
2023/12/25 11:44:10;;;;;;;0.60;0.60;;;13.80;43.00;;;;;;20797;6711;304487;-79
2023/12/25 11:46:46;;;;;;;0.60;0.60;;;13.90;43.50;;;;;;21020;6711;117511;-77
2023/12/25 11:49:21;;;;;;;0.93;0.93;;;13.80;43.50;;;;;;20784;6711;277338;-79
2023/12/25 11:51:57;;;;;;;1.20;1.20;;;13.80;43.80;;;;;;20801;6711;305078;-75
2023/12/25 11:54:36;;;;;;;0.70;0.70;;;14.20;44.20;;;;;;20793;6710;335934;-74
2023/12/25 11:57:19;;;;;;;2.40;2.30;;;14.20;43.60;;;;;;20812;6711;305269;-77
2023/12/25 11:59:51;;;;;;;7.63;6.90;;;14.30;43.40;;;;;;20957;6711;117215;-76
2023/12/25 12:02:27;;;;;;;7.87;7.10;;;14.10;43.40;;;;;;20795;6711;276063;-75
2023/12/25 12:05:04;;;;;;;12.40;11.10;;;14.10;43.70;;;;;;21025;6711;116843;-75
2023/12/25 12:07:40;;;;;;;10.80;9.80;;;13.90;43.70;;;;;;20805;6711;305060;-74
2023/12/25 12:10:15;;;;;;;5.00;4.70;;;13.90;44.30;;;;;;20697;6711;278594;-73
2023/12/25 12:12:52;;;;;;;1.95;1.77;;;14.10;44.50;;;;;;20808;6711;292694;-76
2023/12/25 12:15:28;;;;;;;1.90;1.80;;;14.30;44.30;;;;;;20810;6711;285430;-73
2023/12/25 12:18:04;;;;;;;0.90;0.90;;;14.30;44.00;;;;;;21004;6711;117921;-73
2023/12/25 12:20:43;;;;;;;0.63;0.63;;;14.30;44.00;;;;;;20896;6711;117813;-77
2023/12/25 12:23:15;;;;;;;1.43;1.43;;;14.00;44.40;;;;;;21034;6711;117281;-73
2023/12/25 12:25:51;;;;;;;0.85;0.85;;;13.70;45.00;;;;;;20812;6711;276048;-77
2023/12/25 12:28:26;;;;;;;0.93;0.93;;;13.80;45.70;;;;;;20797;6711;275835;-78
2023/12/25 12:31:02;;;;;;;1.07;1.03;;;14.00;45.50;;;;;;20638;6711;308618;-76
2023/12/25 12:33:38;;;;;;;1.12;1.12;;;14.20;45.30;;;;;;20794;6711;306086;-75
2023/12/25 12:36:13;;;;;;;1.07;1.07;;;14.40;45.30;;;;;;21052;6710;116672;-76
2023/12/25 12:38:49;;;;;;;0.70;0.70;;;14.20;45.30;;;;;;21027;6710;117393;-76
2023/12/25 12:41:24;;;;;;;0.93;0.60;;;13.90;45.70;;;;;;20841;6711;116996;-72
2023/12/25 12:44:01;;;;;;;0.60;0.60;;;13.40;46.50;;;;;;21027;6711;117987;-74
2023/12/25 12:46:38;;;;;;;0.60;0.60;;;13.40;46.50;;;;;;20792;6710;304099;-74
2023/12/25 12:49:13;;;;;;;0.50;0.50;;;13.50;47.20;;;;;;21010;6711;116856;-76
2023/12/25 12:51:49;;;;;;;0.60;0.60;;;13.50;47.10;;;;;;20821;6711;274763;-74
2023/12/25 12:54:26;;;;;;;1.00;1.00;;;13.60;47.50;;;;;;21023;6711;119651;-74
2023/12/25 12:57:02;;;;;;;0.70;0.60;;;13.70;47.60;;;;;;20811;6711;333900;-76
2023/12/25 12:59:38;;;;;;;0.63;0.63;;;13.70;47.50;;;;;;20979;6711;119786;-74
2023/12/25 13:02:14;;;;;;;0.80;0.80;;;13.70;47.90;;;;;;20792;6711;335686;-75
2023/12/25 13:04:50;;;;;;;0.43;0.43;;;13.70;47.50;;;;;;21028;6711;116850;-73
2023/12/25 13:07:25;;;;;;;1.00;1.00;;;13.60;47.40;;;;;;21030;6711;117250;-73
2023/12/25 13:10:01;;;;;;;1.20;1.10;;;13.40;47.60;;;;;;20728;6711;307366;-76
2023/12/25 13:12:36;;;;;;;0.70;0.70;;;13.40;47.80;;;;;;20782;6711;298888;-78
2023/12/25 13:15:13;;;;;;;0.50;0.50;;;13.60;47.50;;;;;;20993;6711;116749;-76
2023/12/25 13:17:48;;;;;;;0.60;0.60;;;13.60;47.50;;;;;;20775;6711;310116;-74
2023/12/25 13:20:24;;;;;;;0.50;0.40;;;13.60;47.90;;;;;;20895;6711;117652;-74